createdAt,value
2018-04-15T00:01:07.019Z,6.80
2018-04-15T00:03:34.618Z,7.10
2018-04-15T00:06:02.175Z,7.60
2018-04-15T00:08:29.666Z,7.03
2018-04-15T00:10:57.185Z,7.40
2018-04-15T00:13:25.440Z,8.03
2018-04-15T00:15:52.932Z,6.80
2018-04-15T00:18:20.430Z,6.87
2018-04-15T00:20:47.931Z,7.03
2018-04-15T00:23:16.303Z,6.40
2018-04-15T00:25:44.568Z,7.50
2018-04-15T00:28:12.859Z,6.93
2018-04-15T00:30:40.342Z,6.20
2018-04-15T00:33:07.844Z,6.90
2018-04-15T00:35:35.337Z,6.57
2018-04-15T00:38:02.826Z,6.47
2018-04-15T00:40:30.311Z,6.33
2018-04-15T00:42:57.904Z,6.13
2018-04-15T00:45:25.459Z,7.17
2018-04-15T00:47:52.971Z,6.47
2018-04-15T00:50:20.476Z,6.50
2018-04-15T00:52:48.037Z,6.27
2018-04-15T00:55:15.569Z,5.67
2018-04-15T00:57:43.853Z,5.97
2018-04-15T01:00:11.438Z,6.03
2018-04-15T01:02:38.944Z,6.20
2018-04-15T01:05:06.452Z,6.27
2018-04-15T01:07:33.944Z,6.40
2018-04-15T01:10:01.448Z,6.57
2018-04-15T01:12:29.023Z,6.07
2018-04-15T01:14:56.555Z,6.73
2018-04-15T01:17:24.798Z,6.30
2018-04-15T01:19:52.396Z,6.83
2018-04-15T01:22:19.882Z,7.20
2018-04-15T01:24:47.370Z,5.60
2018-04-15T01:27:14.960Z,6.30
2018-04-15T01:29:43.197Z,6.20
2018-04-15T01:32:11.371Z,6.50
2018-04-15T01:34:38.957Z,5.60
2018-04-15T01:37:07.210Z,5.67
2018-04-15T01:39:34.700Z,6.20
2018-04-15T01:42:02.249Z,5.30
2018-04-15T01:44:30.486Z,5.63
2018-04-15T01:46:57.991Z,6.37
2018-04-15T01:49:25.534Z,5.97
2018-04-15T01:51:53.784Z,5.63
2018-04-15T01:54:21.288Z,5.73
2018-04-15T01:56:48.823Z,5.60
2018-04-15T01:59:18.946Z,5.30
2018-04-15T02:01:47.234Z,6.13
2018-04-15T02:04:14.782Z,6.00
2018-04-15T02:06:43.051Z,5.77
2018-04-15T02:09:11.309Z,5.80
2018-04-15T02:11:39.563Z,6.90
2018-04-15T02:14:07.060Z,5.80
2018-04-15T02:16:35.319Z,6.90
2018-04-15T02:19:03.567Z,5.53
2018-04-15T02:21:31.175Z,6.53
2018-04-15T02:23:58.667Z,5.40
2018-04-15T02:26:26.180Z,5.67
2018-04-15T02:28:54.443Z,6.03
2018-04-15T02:31:22.682Z,6.30
2018-04-15T02:33:50.200Z,5.60
2018-04-15T02:36:17.749Z,5.60
2018-04-15T02:38:45.239Z,5.07
2018-04-15T02:41:12.739Z,5.73
2018-04-15T02:43:41.001Z,5.23
2018-04-15T02:46:08.544Z,5.17
2018-04-15T02:48:36.039Z,5.07
2018-04-15T02:51:04.285Z,5.70
2018-04-15T02:53:31.776Z,5.33
2018-04-15T02:55:59.282Z,5.27
2018-04-15T02:58:26.781Z,6.57
2018-04-15T03:00:55.064Z,5.63
2018-04-15T03:03:22.552Z,5.37
2018-04-15T03:05:50.053Z,5.93
2018-04-15T03:08:17.635Z,5.80
2018-04-15T03:10:45.133Z,5.17
2018-04-15T03:13:12.638Z,5.83
2018-04-15T03:15:40.930Z,5.50
2018-04-15T03:18:08.469Z,5.37
2018-04-15T03:20:36.756Z,5.17
2018-04-15T03:23:04.263Z,5.50
2018-04-15T03:25:31.767Z,5.50
2018-04-15T03:28:00.011Z,5.90
2018-04-15T03:30:27.589Z,6.40
2018-04-15T03:32:55.883Z,6.40
2018-04-15T03:35:23.367Z,5.47
2018-04-15T03:37:50.992Z,5.77
2018-04-15T03:40:18.468Z,5.40
2018-04-15T03:42:45.998Z,6.30
2018-04-15T03:45:14.384Z,6.80
2018-04-15T03:47:41.939Z,5.70
2018-04-15T03:50:09.444Z,6.80
2018-04-15T03:52:36.933Z,6.03
2018-04-15T03:55:05.191Z,4.53
2018-04-15T03:57:32.691Z,5.73
2018-04-15T04:00:00.238Z,5.40
2018-04-15T04:02:28.495Z,5.87
2018-04-15T04:04:56.757Z,5.00
2018-04-15T04:07:24.243Z,5.50
2018-04-15T04:09:52.620Z,5.37
2018-04-15T04:12:20.886Z,5.67
2018-04-15T04:14:49.147Z,6.00
2018-04-15T04:17:16.627Z,5.57
2018-04-15T04:19:56.172Z,5.63
2018-04-15T04:22:35.500Z,5.40
2018-04-15T04:28:03.627Z,6.30
2018-04-15T04:30:31.123Z,5.70
2018-04-15T04:32:58.611Z,5.77
2018-04-15T04:35:26.091Z,5.20
2018-04-15T04:37:53.578Z,5.20
2018-04-15T04:40:21.166Z,5.37
2018-04-15T04:42:49.432Z,6.10
2018-04-15T04:45:17.692Z,5.23
2018-04-15T04:47:45.204Z,5.57
2018-04-15T04:50:12.735Z,5.00
2018-04-15T04:52:41.012Z,5.10
2018-04-15T04:55:08.566Z,5.50
2018-04-15T04:57:36.829Z,5.20
2018-04-15T05:00:05.122Z,5.33
2018-04-15T05:02:32.598Z,5.90
2018-04-15T05:05:00.087Z,4.40
2018-04-15T05:07:27.561Z,4.50
2018-04-15T05:09:55.155Z,4.43
2018-04-15T05:12:22.704Z,4.53
2018-04-15T05:14:50.206Z,4.33
2018-04-15T05:17:17.694Z,4.47
2018-04-15T05:19:45.956Z,3.83
2018-04-15T05:22:13.442Z,3.63
2018-04-15T05:24:41.706Z,4.20
2018-04-15T05:27:09.962Z,3.87
2018-04-15T05:29:37.447Z,4.00
2018-04-15T05:32:05.724Z,4.93
2018-04-15T05:34:33.212Z,3.70
2018-04-15T05:37:00.720Z,4.00
2018-04-15T05:39:29.012Z,3.90
2018-04-15T05:41:56.508Z,4.20
2018-04-15T05:44:24.004Z,5.80
2018-04-15T05:46:52.245Z,4.80
2018-04-15T05:49:19.859Z,4.53
2018-04-15T05:51:47.389Z,4.30
2018-04-15T05:54:14.882Z,4.07
2018-04-15T05:56:42.387Z,4.00
2018-04-15T05:59:09.873Z,4.43
2018-04-15T06:01:38.155Z,4.93
2018-04-15T06:04:06.427Z,4.47
2018-04-15T06:06:34.684Z,4.53
2018-04-15T06:09:02.161Z,4.47
2018-04-15T06:11:30.431Z,5.10
2018-04-15T06:13:58.816Z,4.60
2018-04-15T06:16:26.335Z,6.07
2018-04-15T06:18:53.818Z,7.80
2018-04-15T06:21:22.076Z,6.67
2018-04-15T06:23:49.587Z,4.23
2018-04-15T06:26:17.250Z,4.90
2018-04-15T06:28:44.730Z,4.93
2018-04-15T06:31:12.219Z,4.47
2018-04-15T06:33:40.475Z,4.50
2018-04-15T06:36:07.999Z,5.40
2018-04-15T06:38:35.539Z,5.10
2018-04-15T06:41:03.084Z,5.70
2018-04-15T06:43:30.576Z,4.60
2018-04-15T06:45:58.078Z,4.97
2018-04-15T06:48:26.332Z,4.87
2018-04-15T06:50:53.832Z,5.20
2018-04-15T06:53:21.362Z,4.47
2018-04-15T06:55:49.706Z,4.87
2018-04-15T06:58:17.161Z,10.53
2018-04-15T07:00:44.682Z,5.80
2018-04-15T07:03:12.218Z,4.30
2018-04-15T07:05:40.494Z,4.67
2018-04-15T07:08:08.761Z,4.23
2018-04-15T07:10:37.051Z,5.00
2018-04-15T07:13:04.530Z,4.47
2018-04-15T07:15:32.034Z,3.80
2018-04-15T07:17:59.518Z,4.40
2018-04-15T07:20:27.073Z,3.50
2018-04-15T07:22:54.561Z,3.37
2018-04-15T07:25:22.051Z,3.20
2018-04-15T07:27:49.548Z,2.37
2018-04-15T07:30:17.105Z,3.20
2018-04-15T07:32:44.585Z,2.87
2018-04-15T07:35:12.091Z,3.27
2018-04-15T07:37:39.590Z,4.00
2018-04-15T07:40:07.156Z,3.60
2018-04-15T07:42:34.667Z,3.53
2018-04-15T07:45:02.167Z,3.83
2018-04-15T07:47:29.800Z,3.57
2018-04-15T07:49:58.049Z,4.07
2018-04-15T07:52:25.636Z,3.27
2018-04-15T07:54:53.139Z,5.60
2018-04-15T07:57:20.622Z,8.90
2018-04-15T07:59:48.129Z,4.43
2018-04-15T08:02:15.622Z,4.20
2018-04-15T08:04:43.935Z,3.83
2018-04-15T08:07:11.412Z,4.93
2018-04-15T08:09:38.905Z,5.70
2018-04-15T08:12:06.418Z,4.10
2018-04-15T08:14:33.914Z,4.60
2018-04-15T08:17:01.521Z,4.23
2018-04-15T08:19:29.041Z,4.27
2018-04-15T08:21:56.640Z,5.13
2018-04-15T08:24:24.155Z,5.07
2018-04-15T08:26:51.646Z,4.57
2018-04-15T08:29:19.919Z,5.07
2018-04-15T08:31:48.174Z,4.73
2018-04-15T08:34:15.671Z,14.93
2018-04-15T08:36:43.171Z,4.77
2018-04-15T08:39:10.669Z,33.03
2018-04-15T08:41:38.251Z,9.97
2018-04-15T08:44:05.748Z,6.07
2018-04-15T08:46:34.040Z,5.27
2018-04-15T08:49:02.322Z,4.73
2018-04-15T08:51:30.584Z,4.80
2018-04-15T08:53:58.839Z,4.67
2018-04-15T08:56:26.330Z,4.10
2018-04-15T08:58:54.736Z,4.10
2018-04-15T09:01:22.236Z,3.70
2018-04-15T09:03:49.717Z,4.30
2018-04-15T09:06:18.001Z,5.07
2018-04-15T09:08:45.483Z,4.50
2018-04-15T09:11:13.007Z,4.57
2018-04-15T09:13:41.274Z,4.30
2018-04-15T09:16:09.563Z,3.40
2018-04-15T09:18:37.120Z,5.83
2018-04-15T09:21:04.684Z,4.80
2018-04-15T09:23:32.185Z,3.63
2018-04-15T09:25:59.709Z,3.90
2018-04-15T09:28:27.262Z,4.30
2018-04-15T09:31:00.548Z,4.60
2018-04-15T09:33:28.085Z,3.87
2018-04-15T09:35:56.371Z,3.57
2018-04-15T09:38:23.885Z,4.73
2018-04-15T09:40:51.481Z,5.10
2018-04-15T09:43:19.753Z,5.60
2018-04-15T09:45:48.035Z,6.20
2018-04-15T09:48:16.313Z,6.50
2018-04-15T09:50:43.851Z,6.10
2018-04-15T09:53:12.121Z,6.07
2018-04-15T09:55:39.719Z,6.83
2018-04-15T09:58:07.256Z,6.00
2018-04-15T10:00:35.516Z,5.87
2018-04-15T10:03:03.807Z,6.30
2018-04-15T10:05:31.306Z,5.37
2018-04-15T10:07:58.791Z,6.00
2018-04-15T10:10:26.366Z,5.60
2018-04-15T10:12:54.632Z,6.00
2018-04-15T10:15:22.902Z,6.10
2018-04-15T10:17:50.401Z,5.67
2018-04-15T10:20:17.923Z,6.50
2018-04-15T10:22:46.216Z,5.93
2018-04-15T10:25:13.718Z,5.20
2018-04-15T10:27:41.220Z,6.03
2018-04-15T10:30:09.522Z,5.80
2018-04-15T10:32:37.051Z,5.47
2018-04-15T10:35:05.304Z,7.47
2018-04-15T10:37:32.800Z,5.30
2018-04-15T10:40:00.348Z,5.80
2018-04-15T10:42:28.661Z,5.07
2018-04-15T10:44:56.284Z,6.47
2018-04-15T10:47:23.851Z,5.87
2018-04-15T10:49:51.409Z,5.50
2018-04-15T10:52:18.925Z,5.47
2018-04-15T10:54:46.474Z,5.00
2018-04-15T10:57:14.007Z,5.57
2018-04-15T10:59:41.554Z,5.77
2018-04-15T11:02:09.037Z,5.20
2018-04-15T11:04:36.554Z,5.90
2018-04-15T11:07:04.070Z,5.93
2018-04-15T11:09:32.346Z,5.13
2018-04-15T11:12:00.635Z,6.47
2018-04-15T11:14:28.916Z,5.80
2018-04-15T11:16:56.415Z,5.57
2018-04-15T11:19:23.914Z,6.17
2018-04-15T11:21:52.165Z,6.10
2018-04-15T11:24:19.760Z,6.93
2018-04-15T11:26:47.306Z,6.77
2018-04-15T11:29:14.789Z,6.43
2018-04-15T11:31:42.288Z,7.10
2018-04-15T11:34:09.826Z,6.70
2018-04-15T11:36:37.408Z,5.57
2018-04-15T11:39:06.531Z,6.60
2018-04-15T11:41:34.779Z,7.10
2018-04-15T11:44:02.270Z,6.20
2018-04-15T11:46:29.792Z,5.73
2018-04-15T11:48:58.049Z,6.47
2018-04-15T11:51:25.584Z,6.90
2018-04-15T11:53:53.055Z,6.80
2018-04-15T11:56:20.575Z,6.33
2018-04-15T11:58:48.083Z,6.07
2018-04-15T12:01:15.604Z,6.07
2018-04-15T12:03:43.217Z,7.03
2018-04-15T12:06:11.529Z,7.90
2018-04-15T12:08:39.052Z,7.10
2018-04-15T12:11:07.346Z,6.40
2018-04-15T12:13:34.852Z,7.40
2018-04-15T12:16:02.464Z,7.30
2018-04-15T12:18:29.958Z,7.70
2018-04-15T12:20:57.648Z,7.50
2018-04-15T12:23:25.919Z,7.97
2018-04-15T12:25:53.507Z,7.70
2018-04-15T12:28:21.784Z,7.73
2018-04-15T12:30:49.338Z,7.80
2018-04-15T12:33:17.614Z,7.97
2018-04-15T12:35:45.207Z,8.13
2018-04-15T12:38:12.701Z,7.87
2018-04-15T12:40:40.199Z,9.70
2018-04-15T12:43:07.692Z,9.37
2018-04-15T12:45:35.200Z,8.63
2018-04-15T12:48:02.748Z,7.93
2018-04-15T12:50:31.001Z,7.97
2018-04-15T12:52:58.591Z,8.13
2018-04-15T12:55:26.148Z,8.70
2018-04-15T12:57:53.670Z,8.30
2018-04-15T13:00:21.154Z,8.10
2018-04-15T13:02:49.539Z,9.40
2018-04-15T13:05:17.100Z,9.43
2018-04-15T13:07:44.582Z,8.70
2018-04-15T13:10:12.082Z,9.30
2018-04-15T13:12:39.580Z,9.80
2018-04-15T13:15:07.171Z,9.50
2018-04-15T13:17:34.665Z,10.00
2018-04-15T13:20:02.946Z,10.50
2018-04-15T13:22:31.256Z,10.57
2018-04-15T13:24:58.755Z,9.87
2018-04-15T13:27:26.344Z,9.60
2018-04-15T13:29:53.904Z,9.27
2018-04-15T13:32:21.426Z,10.07
2018-04-15T13:34:48.954Z,9.53
2018-04-15T13:37:16.451Z,10.03
2018-04-15T13:39:44.726Z,8.83
2018-04-15T13:42:12.992Z,10.20
2018-04-15T13:44:40.526Z,9.20
2018-04-15T13:47:08.004Z,9.80
2018-04-15T13:49:35.489Z,10.37
2018-04-15T13:52:03.753Z,10.30
2018-04-15T13:54:32.014Z,9.77
2018-04-15T13:56:59.530Z,11.30
2018-04-15T13:59:27.053Z,9.20
2018-04-15T14:01:54.605Z,10.20
2018-04-15T14:04:22.897Z,8.93
2018-04-15T14:06:50.440Z,9.40
2018-04-15T14:09:17.932Z,9.40
2018-04-15T14:11:45.473Z,10.70
2018-04-15T14:14:13.012Z,9.57
2018-04-15T14:16:40.514Z,9.53
2018-04-15T14:19:08.033Z,8.97
2018-04-15T14:21:35.524Z,9.50
2018-04-15T14:24:03.058Z,10.20
2018-04-15T14:26:30.548Z,8.80
2018-04-15T14:28:58.152Z,9.20
2018-04-15T14:31:26.402Z,8.43
2018-04-15T14:33:54.987Z,9.10
2018-04-15T14:36:22.576Z,9.13
2018-04-15T14:38:50.118Z,9.57
2018-04-15T14:41:18.426Z,9.30
2018-04-15T14:43:46.895Z,9.40
2018-04-15T14:46:14.418Z,9.20
2018-04-15T14:48:42.682Z,9.57
2018-04-15T14:51:10.279Z,9.60
2018-04-15T14:53:37.758Z,9.57
2018-04-15T14:56:05.279Z,9.40
2018-04-15T14:58:32.750Z,9.67
2018-04-15T15:01:00.245Z,9.90
2018-04-15T15:03:27.859Z,9.37
2018-04-15T15:05:55.361Z,9.83
2018-04-15T15:08:22.886Z,8.80
2018-04-15T15:10:50.412Z,10.23
2018-04-15T15:13:18.678Z,10.00
2018-04-15T15:15:46.946Z,8.93
2018-04-15T15:18:14.536Z,8.80
2018-04-15T15:20:42.052Z,8.00
2018-04-15T15:23:09.767Z,8.73
2018-04-15T15:25:37.254Z,8.70
2018-04-15T15:28:04.754Z,7.97
2018-04-15T15:30:33.253Z,7.63
2018-04-15T15:33:00.772Z,8.00
2018-04-15T15:35:29.155Z,8.67
2018-04-15T15:37:58.062Z,8.70
2018-04-15T15:40:25.811Z,7.87
2018-04-15T15:42:54.122Z,8.50
2018-04-15T15:45:21.670Z,8.70
2018-04-15T15:47:49.175Z,8.37
2018-04-15T15:50:16.688Z,8.07
2018-04-15T15:52:44.196Z,8.17
2018-04-15T15:55:11.684Z,7.27
2018-04-15T15:57:39.175Z,7.10
2018-04-15T16:00:07.458Z,7.80
2018-04-15T16:02:34.962Z,7.90
2018-04-15T16:05:03.222Z,8.20
2018-04-15T16:07:31.494Z,6.90
2018-04-15T16:09:59.741Z,8.20
2018-04-15T16:12:27.233Z,8.30
2018-04-15T16:14:55.510Z,8.43
2018-04-15T16:17:23.787Z,7.43
2018-04-15T16:19:52.172Z,9.10
2018-04-15T16:22:19.680Z,8.70
2018-04-15T16:24:47.198Z,7.90
2018-04-15T16:27:14.677Z,9.63
2018-04-15T16:29:42.220Z,9.10
2018-04-15T16:32:09.722Z,9.40
2018-04-15T16:34:37.264Z,8.73
2018-04-15T16:37:04.886Z,8.80
2018-04-15T16:39:32.414Z,9.00
2018-04-15T16:42:00.685Z,9.00
2018-04-15T16:44:28.938Z,9.53
2018-04-15T16:46:56.461Z,9.50
2018-04-15T16:49:23.960Z,9.77
2018-04-15T16:51:52.252Z,10.40
2018-04-15T16:54:20.683Z,9.30
2018-04-15T16:56:48.186Z,10.57
2018-04-15T16:59:15.686Z,8.90
2018-04-15T17:01:43.191Z,9.80
2018-04-15T17:04:11.473Z,9.60
2018-04-15T17:06:39.822Z,9.67
2018-04-15T17:09:07.330Z,11.10
2018-04-15T17:11:34.818Z,10.03
2018-04-15T17:14:02.330Z,10.40
2018-04-15T17:16:29.839Z,10.47
2018-04-15T17:18:58.167Z,10.17
2018-04-15T17:21:25.724Z,9.77
2018-04-15T17:23:53.203Z,10.00
2018-04-15T17:26:20.692Z,10.83
2018-04-15T17:28:48.204Z,10.00
2018-04-15T17:31:15.701Z,10.60
2018-04-15T17:33:43.237Z,9.73
2018-04-15T17:36:10.729Z,10.47
2018-04-15T17:38:38.234Z,11.80
2018-04-15T17:41:05.761Z,10.73
2018-04-15T17:43:34.025Z,11.50
2018-04-15T17:46:01.625Z,10.17
2018-04-15T17:48:29.340Z,10.50
2018-04-15T17:50:56.833Z,11.00
2018-04-15T17:53:24.330Z,10.50
2018-04-15T17:55:51.825Z,10.77
2018-04-15T17:58:20.096Z,10.70
2018-04-15T18:00:48.384Z,11.23
2018-04-15T18:03:15.890Z,15.03
2018-04-15T18:05:43.399Z,11.30
2018-04-15T18:08:10.910Z,10.83
2018-04-15T18:10:38.389Z,11.30
2018-04-15T18:13:06.005Z,12.47
2018-04-15T18:15:33.498Z,11.23
2018-04-15T18:18:01.000Z,10.83
2018-04-15T18:20:28.567Z,10.80
2018-04-15T18:22:56.219Z,9.70
2018-04-15T18:25:23.985Z,11.00
2018-04-15T18:27:51.499Z,10.67
2018-04-15T18:30:19.048Z,10.70
2018-04-15T18:32:46.533Z,10.97
2018-04-15T18:35:14.021Z,10.40
2018-04-15T18:37:41.568Z,10.30
2018-04-15T18:40:09.153Z,11.00
2018-04-15T18:42:36.664Z,11.03
2018-04-15T18:45:04.166Z,10.10
2018-04-15T18:47:41.691Z,10.60
2018-04-15T18:50:09.990Z,10.30
2018-04-15T18:52:37.520Z,10.90
2018-04-15T18:55:05.796Z,9.73
2018-04-15T18:57:34.082Z,10.10
2018-04-15T19:00:02.397Z,10.10
2018-04-15T19:02:29.912Z,9.80
2018-04-15T19:05:07.577Z,10.63
2018-04-15T19:07:35.090Z,9.83
2018-04-15T19:10:02.635Z,10.10
2018-04-15T19:12:30.281Z,10.83
2018-04-15T19:14:58.609Z,10.73
2018-04-15T19:17:26.103Z,11.47
2018-04-15T19:19:54.373Z,10.77
2018-04-15T19:22:22.650Z,11.40
2018-04-15T19:24:50.943Z,11.87
2018-04-15T19:27:18.449Z,11.40
2018-04-15T19:29:46.133Z,12.77
2018-04-15T19:32:13.706Z,12.03
2018-04-15T19:34:41.980Z,12.13
2018-04-15T19:37:10.271Z,13.20
2018-04-15T19:39:37.792Z,12.90
2018-04-15T19:42:05.447Z,13.20
2018-04-15T19:44:32.889Z,12.90
2018-04-15T19:47:00.388Z,12.17
2018-04-15T19:49:28.822Z,12.80
2018-04-15T19:51:56.342Z,12.60
2018-04-15T19:54:23.881Z,11.70
2018-04-15T19:56:52.262Z,13.07
2018-04-15T19:59:19.767Z,13.90
2018-04-15T20:01:47.366Z,12.10
2018-04-15T20:04:15.680Z,13.13
2018-04-15T20:06:43.209Z,13.93
2018-04-15T20:09:10.718Z,13.07
2018-04-15T20:11:38.205Z,13.20
2018-04-15T20:14:06.538Z,14.30
2018-04-15T20:16:34.021Z,13.53
2018-04-15T20:19:01.531Z,14.47
2018-04-15T20:21:29.032Z,14.23
2018-04-15T20:23:56.556Z,14.60
2018-04-15T20:26:24.034Z,15.13
2018-04-15T20:28:51.535Z,13.33
2018-04-15T20:31:19.038Z,13.83
2018-04-15T20:33:46.525Z,13.97
2018-04-15T20:36:14.016Z,14.30
2018-04-15T20:38:41.562Z,14.63
2018-04-15T20:41:09.066Z,13.20
2018-04-15T20:43:36.563Z,13.97
2018-04-15T20:46:04.845Z,14.53
2018-04-15T20:48:32.337Z,14.40
2018-04-15T20:50:59.866Z,14.13
2018-04-15T20:53:27.367Z,14.60
2018-04-15T20:55:54.857Z,14.37
2018-04-15T20:58:23.118Z,14.30
2018-04-15T21:00:50.621Z,15.10
2018-04-15T21:03:18.118Z,14.00
2018-04-15T21:05:45.602Z,14.07
2018-04-15T21:08:13.884Z,14.10
2018-04-15T21:10:42.178Z,14.83
2018-04-15T21:13:09.677Z,14.43
2018-04-15T21:15:37.172Z,15.10
2018-04-15T21:18:05.550Z,15.50
2018-04-15T21:20:33.802Z,15.43
2018-04-15T21:23:01.298Z,15.17
2018-04-15T21:25:28.859Z,14.87
2018-04-15T21:27:57.088Z,15.10
2018-04-15T21:30:24.611Z,14.47
2018-04-15T21:32:52.114Z,14.37
2018-04-15T21:35:20.414Z,14.60
2018-04-15T21:37:47.923Z,14.50
2018-04-15T21:40:15.418Z,15.07
2018-04-15T21:42:43.804Z,13.93
2018-04-15T21:45:11.302Z,15.33
2018-04-15T21:47:38.802Z,14.90
2018-04-15T21:50:07.070Z,15.10
2018-04-15T21:52:35.352Z,15.67
2018-04-15T21:55:03.601Z,15.10
2018-04-15T21:57:31.185Z,15.60
2018-04-15T21:59:59.464Z,14.90
2018-04-15T22:02:27.727Z,16.00
2018-04-15T22:04:56.000Z,16.37
2018-04-15T22:07:24.280Z,16.00
2018-04-15T22:09:52.550Z,15.03
2018-04-15T22:12:20.819Z,15.40
2018-04-15T22:14:48.419Z,16.67
2018-04-15T22:17:15.927Z,15.60
2018-04-15T22:19:43.517Z,17.37
2018-04-15T22:22:11.034Z,15.97
2018-04-15T22:24:38.547Z,16.43
2018-04-15T22:27:06.048Z,15.57
2018-04-15T22:29:33.562Z,17.20
2018-04-15T22:32:01.107Z,17.20
2018-04-15T22:34:28.655Z,16.80
2018-04-15T22:36:56.927Z,16.13
2018-04-15T22:39:24.434Z,15.70
2018-04-15T22:41:52.048Z,15.50
2018-04-15T22:44:19.607Z,16.10
2018-04-15T22:46:47.099Z,16.53
2018-04-15T22:49:20.346Z,15.90
2018-04-15T22:51:48.602Z,22.60
2018-04-15T22:54:16.191Z,17.10
2018-04-15T22:56:43.705Z,15.70
2018-04-15T22:59:11.198Z,16.90
2018-04-15T23:01:38.764Z,16.17
2018-04-15T23:04:06.275Z,16.57
2018-04-15T23:06:33.805Z,15.97
2018-04-15T23:09:01.300Z,16.07
2018-04-15T23:11:29.568Z,16.50
2018-04-15T23:13:57.153Z,15.80
2018-04-15T23:16:25.425Z,17.47
2018-04-15T23:18:53.710Z,17.60
2018-04-15T23:21:21.195Z,15.60
2018-04-15T23:23:48.741Z,17.53
2018-04-15T23:26:16.239Z,16.13
2018-04-15T23:28:43.749Z,16.50
2018-04-15T23:31:11.254Z,16.67
2018-04-15T23:33:38.800Z,16.80
2018-04-15T23:36:06.399Z,16.10
2018-04-15T23:38:34.670Z,17.33
2018-04-15T23:41:02.958Z,15.67
2018-04-15T23:43:30.451Z,17.43
2018-04-15T23:45:57.962Z,16.60
2018-04-15T23:48:26.243Z,16.37
2018-04-15T23:50:54.498Z,15.53
2018-04-15T23:53:22.774Z,15.87
2018-04-15T23:55:51.045Z,17.50
2018-04-15T23:58:19.319Z,16.80
